createdAt,value
2019-03-01T00:01:24.184Z,22.6
2019-03-01T00:04:30.235Z,22.6
2019-03-01T00:07:36.259Z,22.6
2019-03-01T00:10:42.306Z,22.5
2019-03-01T00:13:48.495Z,22.5
2019-03-01T00:16:54.628Z,22.5
2019-03-01T00:20:00.685Z,22.5
2019-03-01T00:23:06.603Z,22.5
2019-03-01T00:26:12.532Z,22.5
2019-03-01T00:29:18.519Z,22.4
2019-03-01T00:32:24.456Z,22.4
2019-03-01T00:35:30.413Z,22.4
2019-03-01T00:38:36.422Z,22.4
2019-03-01T00:41:42.494Z,22.4
2019-03-01T00:44:48.786Z,22.4
2019-03-01T00:47:54.943Z,22.3
2019-03-01T00:51:00.900Z,22.3
2019-03-01T00:54:06.888Z,22.3
2019-03-01T00:57:12.894Z,22.3
2019-03-01T01:00:18.980Z,22.2
2019-03-01T01:03:25.023Z,22.2
2019-03-01T01:06:31.103Z,22.2
2019-03-01T01:09:37.084Z,22.2
2019-03-01T01:12:43.042Z,22.2
2019-03-01T01:15:49.029Z,22.2
2019-03-01T01:18:55.083Z,22.1
2019-03-01T01:22:01.084Z,22.1
2019-03-01T01:25:07.253Z,22.1
2019-03-01T01:28:13.350Z,22.1
2019-03-01T01:31:19.435Z,22.1
2019-03-01T01:34:25.325Z,22.1
2019-03-01T01:37:31.426Z,22.1
2019-03-01T01:40:37.476Z,22.1
2019-03-01T01:43:43.480Z,22.1
2019-03-01T01:46:49.356Z,22.1
2019-03-01T01:49:55.408Z,22.1
2019-03-01T01:53:01.568Z,22.2
2019-03-01T01:56:07.677Z,22.2
2019-03-01T01:59:13.689Z,22.2
2019-03-01T02:02:19.646Z,22.2
2019-03-01T02:05:25.709Z,22.2
2019-03-01T02:08:31.595Z,22.2
2019-03-01T02:11:37.607Z,22.2
2019-03-01T02:14:43.578Z,22.3
2019-03-01T02:17:49.673Z,22.3
2019-03-01T02:20:55.600Z,22.3
2019-03-01T02:24:01.632Z,22.3
2019-03-01T02:27:07.630Z,22.4
2019-03-01T02:30:13.575Z,22.4
2019-03-01T02:33:19.673Z,22.4
2019-03-01T02:36:25.832Z,22.4
2019-03-01T02:39:31.773Z,22.5
2019-03-01T02:42:37.673Z,22.5
2019-03-01T02:45:43.952Z,22.5
2019-03-01T02:48:52.678Z,22.5
2019-03-01T02:51:58.895Z,22.5
2019-03-01T02:55:05.043Z,22.6
2019-03-01T02:58:11.057Z,22.6
2019-03-01T03:01:17.244Z,22.6
2019-03-01T03:04:23.378Z,22.6
2019-03-01T03:07:29.533Z,22.7
2019-03-01T03:10:35.477Z,22.7
2019-03-01T03:13:41.622Z,22.7
2019-03-01T03:16:47.707Z,22.7
2019-03-01T03:19:53.853Z,22.7
2019-03-01T03:22:59.759Z,22.7
2019-03-01T03:26:06.103Z,22.7
2019-03-01T03:29:12.078Z,22.8
2019-03-01T03:32:18.161Z,22.8
2019-03-01T03:35:27.701Z,22.8
2019-03-01T03:38:33.739Z,22.8
2019-03-01T03:41:39.919Z,22.8
2019-03-01T03:44:46.147Z,22.8
2019-03-01T03:47:52.270Z,22.8
2019-03-01T03:50:58.274Z,22.8
2019-03-01T03:54:04.403Z,22.9
2019-03-01T03:57:10.464Z,22.9
2019-03-01T04:00:16.450Z,22.9
2019-03-01T04:03:22.672Z,22.9
2019-03-01T04:06:28.698Z,23
2019-03-01T04:09:34.632Z,23
2019-03-01T04:12:40.611Z,23.1
2019-03-01T04:15:46.661Z,23.1
2019-03-01T04:18:52.686Z,23.2
2019-03-01T04:21:58.621Z,23.2
2019-03-01T04:25:04.651Z,23.3
2019-03-01T04:28:10.532Z,23.3
2019-03-01T04:31:16.572Z,23.4
2019-03-01T04:34:22.733Z,23.4
2019-03-01T04:37:28.781Z,23.4
2019-03-01T04:40:34.949Z,23.5
2019-03-01T04:43:40.847Z,23.5
2019-03-01T04:46:46.836Z,23.5
2019-03-01T04:49:52.891Z,23.5
2019-03-01T04:52:58.936Z,23.6
2019-03-01T04:56:04.964Z,23.6
2019-03-01T04:59:10.971Z,23.7
2019-03-01T05:02:17.100Z,23.7
2019-03-01T05:05:23.081Z,23.7
2019-03-01T05:08:29.103Z,23.8
2019-03-01T05:11:35.003Z,23.8
2019-03-01T05:14:41.145Z,23.8
2019-03-01T05:17:47.132Z,23.8
2019-03-01T05:20:53.083Z,23.9
2019-03-01T05:23:59.071Z,23.9
2019-03-01T05:27:05.011Z,23.9
2019-03-01T05:30:11.081Z,23.9
2019-03-01T05:33:17.054Z,24
2019-03-01T05:36:23.067Z,24
2019-03-01T05:39:29.053Z,24
2019-03-01T05:42:35.154Z,24.1
2019-03-01T05:45:41.528Z,24.1
2019-03-01T05:48:47.558Z,24.2
2019-03-01T05:51:53.622Z,24.2
2019-03-01T05:54:59.554Z,24.2
2019-03-01T05:58:05.685Z,24.3
2019-03-01T06:01:21.296Z,24.3
2019-03-01T06:04:27.161Z,24.4
2019-03-01T06:07:33.220Z,24.5
2019-03-01T06:10:39.250Z,24.5
2019-03-01T06:13:47.503Z,24.6
2019-03-01T06:16:53.423Z,24.7
2019-03-01T06:19:59.322Z,24.8
2019-03-01T06:23:05.231Z,24.9
2019-03-01T06:26:11.294Z,25
2019-03-01T06:29:17.333Z,25.1
2019-03-01T06:32:23.357Z,25.1
2019-03-01T06:35:29.389Z,25.2
2019-03-01T06:38:35.477Z,25.3
2019-03-01T06:41:41.551Z,25.4
2019-03-01T06:44:47.633Z,25.4
2019-03-01T06:47:53.629Z,25.5
2019-03-01T06:50:59.556Z,25.6
2019-03-01T06:54:05.615Z,25.6
2019-03-01T06:57:11.566Z,25.6
2019-03-01T07:00:17.625Z,25.8
2019-03-01T07:03:23.600Z,25.9
2019-03-01T07:06:29.562Z,25.9
2019-03-01T07:09:35.578Z,26
2019-03-01T07:12:43.317Z,26.1
2019-03-01T07:15:49.285Z,26.1
2019-03-01T07:18:55.288Z,26.1
2019-03-01T07:22:01.416Z,26.2
2019-03-01T07:25:10.640Z,26.2
2019-03-01T07:28:16.658Z,26.3
2019-03-01T07:31:22.566Z,26.3
2019-03-01T07:34:28.586Z,26.3
2019-03-01T07:37:34.501Z,26.4
2019-03-01T07:40:40.629Z,26.5
2019-03-01T07:43:46.512Z,26.5
2019-03-01T07:46:53.488Z,26.5
2019-03-01T07:50:00.213Z,26.5
2019-03-01T07:53:09.048Z,26.6
2019-03-01T07:56:15.080Z,26.6
2019-03-01T07:59:21.314Z,26.7
2019-03-01T08:02:35.854Z,26.7
2019-03-01T08:05:48.623Z,26.8
2019-03-01T08:08:54.804Z,26.8
2019-03-01T08:12:06.661Z,26.8
2019-03-01T08:15:15.619Z,26.8
2019-03-01T08:18:21.756Z,26.8
2019-03-01T08:21:27.728Z,26.9
2019-03-01T08:24:33.889Z,26.9
2019-03-01T08:27:46.123Z,26.9
2019-03-01T08:30:55.543Z,26.9
2019-03-01T08:34:01.795Z,26.9
2019-03-01T08:37:08.292Z,26.9
2019-03-01T08:40:21.168Z,26.9
2019-03-01T08:43:27.637Z,27
2019-03-01T08:46:33.682Z,27
2019-03-01T08:49:49.514Z,27
2019-03-01T08:52:55.486Z,27
2019-03-01T08:56:02.196Z,27
2019-03-01T08:59:14.069Z,27
2019-03-01T09:02:23.673Z,26.9
2019-03-01T09:05:29.563Z,27
2019-03-01T09:08:35.588Z,26.9
2019-03-01T09:11:48.081Z,26.8
2019-03-01T09:14:54.166Z,26.8
2019-03-01T09:18:00.903Z,26.8
2019-03-01T09:21:12.131Z,26.7
2019-03-01T09:24:19.340Z,26.7
2019-03-01T09:27:31.679Z,26.7
2019-03-01T09:30:40.206Z,26.7
2019-03-01T09:33:49.416Z,26.7
2019-03-01T09:37:01.040Z,26.7
2019-03-01T09:40:07.044Z,26.7
2019-03-01T09:43:13.189Z,26.7
2019-03-01T09:46:20.758Z,26.6
2019-03-01T09:49:33.307Z,26.6
2019-03-01T09:52:39.426Z,26.6
2019-03-01T09:55:47.368Z,26.5
2019-03-01T09:58:53.478Z,26.5
2019-03-01T10:01:59.417Z,26.5
2019-03-01T10:05:05.316Z,26.5
2019-03-01T10:08:11.297Z,26.4
2019-03-01T10:11:17.347Z,26.4
2019-03-01T10:14:23.310Z,26.4
2019-03-01T10:17:29.210Z,26.4
2019-03-01T10:20:35.120Z,26.4
2019-03-01T10:23:41.263Z,26.3
2019-03-01T10:26:47.192Z,26.4
2019-03-01T10:29:53.181Z,26.3
2019-03-01T10:32:59.172Z,26.2
2019-03-01T10:36:06.237Z,26.1
2019-03-01T10:39:12.173Z,26.2
2019-03-01T10:42:18.175Z,26.2
2019-03-01T10:45:24.255Z,26.2
2019-03-01T10:48:30.169Z,26.3
2019-03-01T10:51:36.215Z,26.3
2019-03-01T10:54:45.442Z,26.2
2019-03-01T10:57:52.471Z,26.2
2019-03-01T11:00:58.471Z,26.2
2019-03-01T11:04:04.870Z,26.2
2019-03-01T11:07:10.756Z,26.2
2019-03-01T11:10:16.787Z,26.2
2019-03-01T11:13:22.746Z,26.2
2019-03-01T11:16:28.745Z,26.1
2019-03-01T11:19:34.802Z,26.1
2019-03-01T11:22:40.841Z,26.1
2019-03-01T11:25:50.018Z,26.2
2019-03-01T11:28:56.020Z,26.2
2019-03-01T11:32:01.908Z,26.2
2019-03-01T11:35:08.084Z,26.2
2019-03-01T11:38:17.298Z,26.2
2019-03-01T11:41:23.338Z,26.2
2019-03-01T11:44:29.299Z,26.2
2019-03-01T12:13:11.427Z,25.8
2019-03-01T12:16:17.264Z,25.8
2019-03-01T12:19:23.226Z,25.8
2019-03-01T12:22:30.217Z,25.8
2019-03-01T12:25:36.105Z,25.8
2019-03-01T12:28:42.100Z,25.8
2019-03-01T12:31:48.091Z,25.8
2019-03-01T12:34:54.319Z,25.9
2019-03-01T12:38:01.288Z,26
2019-03-01T12:41:07.303Z,26
2019-03-01T12:44:13.406Z,26
2019-03-01T12:47:19.371Z,26
2019-03-01T12:50:25.365Z,26
2019-03-01T12:53:31.296Z,26.1
2019-03-01T12:56:37.510Z,26.2
2019-03-01T12:59:43.612Z,26.2
2019-03-01T13:02:49.604Z,26.2
2019-03-01T13:05:55.636Z,26.1
2019-03-01T13:09:07.907Z,26.1
2019-03-01T13:12:15.434Z,26.2
2019-03-01T13:15:28.291Z,26.2
2019-03-01T13:18:34.248Z,26.1
2019-03-01T13:21:40.180Z,26.1
2019-03-01T13:24:54.418Z,26.2
2019-03-01T13:28:00.361Z,26.1
2019-03-01T13:31:08.088Z,26.1
2019-03-01T13:34:17.521Z,26.1
2019-03-01T13:37:23.472Z,26.1
2019-03-01T13:40:29.522Z,26.1
2019-03-01T13:43:35.516Z,26.1
2019-03-01T13:46:41.547Z,26.1
2019-03-01T13:49:47.402Z,26
2019-03-01T13:52:54.356Z,26.1
2019-03-01T13:56:01.125Z,26.1
2019-03-01T13:59:07.175Z,26.1
2019-03-01T14:02:13.247Z,26.2
2019-03-01T14:05:19.316Z,26.1
2019-03-01T14:08:25.232Z,26.1
2019-03-01T14:11:31.243Z,26
2019-03-01T14:14:37.180Z,26.1
2019-03-01T14:17:43.288Z,26
2019-03-01T14:20:49.184Z,26
2019-03-01T14:24:01.862Z,26
2019-03-01T14:27:07.761Z,26
2019-03-01T14:30:13.849Z,25.9
2019-03-01T14:33:19.871Z,25.9
2019-03-01T14:36:26.055Z,25.9
2019-03-01T14:39:32.043Z,25.9
2019-03-01T14:42:37.993Z,25.9
2019-03-01T14:45:50.273Z,25.9
2019-03-01T14:48:56.560Z,25.9
2019-03-01T14:52:02.637Z,25.9
2019-03-01T14:55:08.644Z,25.8
2019-03-01T14:58:14.631Z,25.8
2019-03-01T15:01:27.692Z,25.8
2019-03-01T15:04:33.800Z,25.8
2019-03-01T15:07:39.935Z,25.8
2019-03-01T15:10:46.016Z,25.8
2019-03-01T15:13:51.996Z,25.7
2019-03-01T15:16:57.945Z,25.7
2019-03-01T15:20:03.885Z,25.7
2019-03-01T15:23:09.879Z,25.7
2019-03-01T15:26:18.074Z,25.7
2019-03-01T15:29:32.020Z,25.7
2019-03-01T15:32:38.907Z,25.7
2019-03-01T15:35:44.829Z,25.7
2019-03-01T15:38:53.738Z,25.7
2019-03-01T15:41:59.649Z,25.7
2019-03-01T15:45:05.911Z,25.6
2019-03-01T15:48:11.917Z,25.6
2019-03-01T15:51:18.166Z,25.6
2019-03-01T15:54:24.187Z,25.6
2019-03-01T15:57:36.022Z,25.6
2019-03-01T16:00:42.010Z,25.6
2019-03-01T16:03:47.967Z,25.6
2019-03-01T16:06:59.864Z,25.6
2019-03-01T16:10:05.867Z,25.6
2019-03-01T16:13:12.918Z,25.6
2019-03-01T16:16:19.271Z,25.6
2019-03-01T16:19:25.369Z,25.6
2019-03-01T16:22:31.254Z,25.6
2019-03-01T16:25:37.189Z,25.5
2019-03-01T16:28:43.121Z,25.5
2019-03-01T16:31:49.029Z,25.5
2019-03-01T16:34:55.004Z,25.5
2019-03-01T16:38:02.296Z,25.5
2019-03-01T16:41:08.536Z,25.5
2019-03-01T16:44:14.511Z,25.5
2019-03-01T16:47:20.427Z,25.5
2019-03-01T16:50:28.360Z,25.5
2019-03-01T16:53:36.582Z,25.5
2019-03-01T16:56:46.915Z,25.5
2019-03-01T16:59:52.796Z,25.5
2019-03-01T17:02:58.810Z,25.4
2019-03-01T17:06:04.822Z,25.4
2019-03-01T17:09:17.090Z,25.4
2019-03-01T17:12:23.031Z,25.4
2019-03-01T17:15:28.960Z,25.4
2019-03-01T17:18:35.014Z,25.4
2019-03-01T17:21:40.912Z,25.4
2019-03-01T17:24:53.170Z,25.4
2019-03-01T17:27:59.078Z,25.4
2019-03-01T17:31:05.160Z,25.4
2019-03-01T17:34:11.045Z,25.4
2019-03-01T17:37:17.029Z,25.4
2019-03-01T17:40:23.147Z,25.4
2019-03-01T17:43:37.188Z,25.4
2019-03-01T17:46:43.144Z,25.4
2019-03-01T17:49:49.195Z,25.4
2019-03-01T17:52:55.290Z,25.4
2019-03-01T17:56:01.226Z,25.4
2019-03-01T17:59:08.173Z,25.4
2019-03-01T18:02:20.309Z,25.4
2019-03-01T18:05:26.274Z,25.4
2019-03-01T18:08:32.277Z,25.3
2019-03-01T18:11:45.583Z,25.3
2019-03-01T18:14:51.462Z,25.3
2019-03-01T18:17:57.445Z,25.2
2019-03-01T18:21:03.472Z,25.2
2019-03-01T18:24:15.849Z,25.2
2019-03-01T18:27:21.911Z,25.2
2019-03-01T18:30:29.900Z,25.2
2019-03-01T18:33:36.077Z,25.2
2019-03-01T18:36:45.738Z,25.2
2019-03-01T18:39:54.640Z,25.1
2019-03-01T18:43:00.741Z,25.1
2019-03-01T18:46:06.626Z,25.1
2019-03-01T18:49:21.083Z,25.1
2019-03-01T18:52:26.992Z,25.1
2019-03-01T18:55:32.939Z,25.1
2019-03-01T18:58:38.917Z,25.1
2019-03-01T19:01:51.718Z,25.1
2019-03-01T19:05:00.536Z,25.1
2019-03-01T19:08:11.013Z,25
2019-03-01T19:11:17.050Z,25
2019-03-01T19:14:22.983Z,25
2019-03-01T19:17:29.009Z,25
2019-03-01T19:20:42.439Z,25
2019-03-01T19:23:48.433Z,25
2019-03-01T19:26:54.374Z,25
2019-03-01T19:30:00.327Z,25
2019-03-01T19:33:13.899Z,25
2019-03-01T19:36:21.545Z,25
2019-03-01T19:39:27.506Z,24.9
2019-03-01T19:42:38.730Z,24.9
2019-03-01T19:45:44.736Z,24.9
2019-03-01T19:48:50.666Z,24.9
2019-03-01T19:51:58.466Z,24.9
2019-03-01T19:55:04.328Z,24.9
2019-03-01T19:58:17.498Z,24.8
2019-03-01T20:01:23.467Z,24.8
2019-03-01T20:04:29.426Z,24.7
2019-03-01T20:07:35.421Z,24.7
2019-03-01T20:10:41.390Z,24.6
2019-03-01T20:13:53.661Z,24.6
2019-03-01T20:17:00.532Z,24.5
2019-03-01T20:20:06.457Z,24.5
2019-03-01T20:23:12.412Z,24.4
2019-03-01T20:26:18.517Z,24.4
2019-03-01T20:29:30.434Z,24.3
2019-03-01T20:32:36.372Z,24.3
2019-03-01T20:35:42.702Z,24.3
2019-03-01T20:38:48.652Z,24.2
2019-03-01T20:41:57.698Z,24.2
2019-03-01T20:45:03.749Z,24.1
2019-03-01T20:48:11.549Z,24.1
2019-03-01T20:51:17.466Z,24
2019-03-01T20:54:30.967Z,24
2019-03-01T20:57:36.897Z,24
2019-03-01T21:00:42.807Z,23.9
2019-03-01T21:03:48.734Z,23.9
2019-03-01T21:06:54.792Z,23.9
2019-03-01T21:10:00.745Z,23.8
2019-03-01T21:13:08.611Z,23.8
2019-03-01T21:16:18.417Z,23.8
2019-03-01T21:19:24.318Z,23.8
2019-03-01T21:22:30.296Z,23.7
2019-03-01T21:25:42.488Z,23.7
2019-03-01T21:28:48.404Z,23.6
2019-03-01T21:31:54.419Z,23.6
2019-03-01T21:35:00.298Z,23.6
2019-03-01T21:38:13.813Z,23.6
2019-03-01T21:41:20.304Z,23.6
2019-03-01T21:44:28.410Z,23.5
2019-03-01T21:47:34.376Z,23.5
2019-03-01T21:50:42.365Z,23.5
2019-03-01T21:53:48.977Z,23.5
2019-03-01T21:57:14.311Z,23.4
2019-03-01T22:00:20.280Z,23.4
2019-03-01T22:03:37.256Z,23.4
2019-03-01T22:06:45.068Z,23.4
2019-03-01T22:09:51.181Z,23.4
2019-03-01T22:13:03.681Z,23.3
2019-03-01T22:16:09.697Z,23.3
2019-03-01T22:19:18.478Z,23.3
2019-03-01T22:22:26.995Z,23.3
2019-03-01T22:25:39.618Z,23.3
2019-03-01T22:28:45.582Z,23.2
2019-03-01T22:31:51.523Z,23.2
2019-03-01T22:34:57.430Z,23.2
2019-03-01T22:38:12.110Z,23.2
2019-03-01T22:41:18.291Z,23.1
2019-03-01T22:44:24.335Z,23.1
2019-03-01T22:47:32.336Z,23.1
2019-03-01T22:50:42.711Z,23.1
2019-03-01T22:53:49.365Z,23.1
2019-03-01T22:56:55.406Z,23.1
2019-03-01T23:00:01.379Z,23
2019-03-01T23:03:07.248Z,23
2019-03-01T23:06:16.031Z,23
2019-03-01T23:09:21.984Z,23
2019-03-01T23:12:28.144Z,23
2019-03-01T23:15:34.056Z,23
2019-03-01T23:18:56.169Z,22.9
2019-03-01T23:22:02.513Z,22.9
2019-03-01T23:25:14.983Z,22.9
2019-03-01T23:28:21.060Z,22.9
2019-03-01T23:31:26.990Z,22.9
2019-03-01T23:34:38.839Z,22.9
2019-03-01T23:37:48.637Z,22.9
2019-03-01T23:40:54.566Z,22.9
2019-03-01T23:44:02.699Z,22.9
2019-03-01T23:47:12.726Z,22.8
2019-03-01T23:50:21.382Z,22.8
2019-03-01T23:53:27.572Z,22.8
2019-03-01T23:56:39.147Z,22.8
2019-03-01T23:59:45.204Z,22.8
